Time;durP1;ratioP1;P1;durP2;ratioP2;P2;SDS_P1;SDS_P2;PMS_P1;PMS_P2;Temp;Humidity;BMP_temperature;BMP_pressure;BME280_temperature;BME280_humidity;BME280_pressure;Samples;Min_cycle;Max_cycle;Signal;HPM_P1;HPM_P2
2023/07/24 00:00:35;;;;;;;7.75;2.92;;;13.20;92.00;;;;;;5010309;28;20029;-75
2023/07/24 00:03:03;;;;;;;8.52;2.72;;;13.20;91.90;;;;;;5007740;28;20030;-80
2023/07/24 00:05:31;;;;;;;8.90;2.97;;;13.30;92.50;;;;;;5006925;28;20022;-73
2023/07/24 00:07:58;;;;;;;8.95;2.83;;;13.50;92.10;;;;;;5011622;28;20036;-78
2023/07/24 00:10:26;;;;;;;7.85;2.80;;;13.50;91.90;;;;;;5011640;28;20121;-76
2023/07/24 00:12:53;;;;;;;7.40;2.78;;;13.50;91.70;;;;;;5009014;28;20029;-75
2023/07/24 00:15:20;;;;;;;9.27;2.70;;;13.50;91.40;;;;;;5011591;28;20033;-74
2023/07/24 00:17:48;;;;;;;10.18;3.85;;;13.50;91.50;;;;;;5021353;28;20477;-77
2023/07/24 00:20:15;;;;;;;10.68;2.90;;;13.60;91.40;;;;;;5014101;28;20049;-81
2023/07/24 00:22:43;;;;;;;7.22;3.30;;;13.70;91.60;;;;;;5014203;28;20102;-77
2023/07/24 00:25:10;;;;;;;8.32;3.20;;;13.80;92.00;;;;;;5013434;28;20065;-79
2023/07/24 00:27:37;;;;;;;10.00;3.13;;;13.90;91.60;;;;;;5013517;28;20030;-78
2023/07/24 00:30:05;;;;;;;7.25;2.75;;;14.00;91.50;;;;;;5011532;28;20056;-75
2023/07/24 00:32:33;;;;;;;9.25;2.75;;;14.10;91.40;;;;;;5009186;28;20138;-75
2023/07/24 00:35:00;;;;;;;7.07;2.63;;;14.10;90.60;;;;;;5003201;28;20415;-75
2023/07/24 00:37:27;;;;;;;11.40;2.65;;;14.20;90.80;;;;;;5007091;28;20450;-75
2023/07/24 00:39:56;;;;;;;8.02;2.50;;;14.20;90.40;;;;;;5009012;28;20026;-76
2023/07/24 00:42:23;;;;;;;12.90;2.53;;;14.20;90.30;;;;;;5007262;28;20105;-77
2023/07/24 00:44:50;;;;;;;8.10;2.40;;;14.20;90.30;;;;;;5008743;28;20027;-76
2023/07/24 00:47:18;;;;;;;11.75;2.28;;;14.30;90.00;;;;;;4999319;28;20508;-75
2023/07/24 00:49:46;;;;;;;8.05;2.13;;;14.20;89.60;;;;;;5016624;28;20034;-76
2023/07/24 00:52:14;;;;;;;8.23;2.35;;;14.30;89.50;;;;;;5006431;28;20046;-76
2023/07/24 00:54:43;;;;;;;9.77;2.53;;;14.20;89.10;;;;;;5011350;28;20026;-78
2023/07/24 00:57:11;;;;;;;8.25;2.47;;;14.30;89.40;;;;;;5009975;28;20064;-78
2023/07/24 00:59:38;;;;;;;8.25;2.22;;;14.20;89.00;;;;;;5010557;28;20530;-81
2023/07/24 01:02:06;;;;;;;7.85;2.15;;;14.20;88.90;;;;;;5012858;28;20147;-76
2023/07/24 01:04:33;;;;;;;8.65;2.17;;;14.20;89.10;;;;;;5010505;28;20014;-76
2023/07/24 01:07:01;;;;;;;8.43;2.03;;;14.30;89.10;;;;;;5011629;28;20116;-78
2023/07/24 01:09:28;;;;;;;6.57;2.53;;;14.20;88.80;;;;;;5012402;28;20038;-77
2023/07/24 01:12:08;;;;;;;5.30;2.05;;;14.20;88.90;;;;;;5010614;28;20084;-77
2023/07/24 01:14:57;;;;;;;12.00;2.60;;;14.20;89.00;;;;;;5012328;28;20029;-76
2023/07/24 01:17:28;;;;;;;8.82;2.42;;;14.30;89.10;;;;;;5012418;28;20025;-77
2023/07/24 01:19:58;;;;;;;10.05;2.00;;;14.30;88.80;;;;;;5006915;28;20041;-76
2023/07/24 01:22:40;;;;;;;9.50;2.35;;;14.20;87.80;;;;;;5020109;28;20030;-75
2023/07/24 01:25:36;;;;;;;9.88;2.40;;;14.20;87.70;;;;;;5005554;28;20116;-77
2023/07/24 01:28:08;;;;;;;11.25;2.45;;;14.20;87.90;;;;;;5013814;28;20104;-78
2023/07/24 01:30:35;;;;;;;5.78;2.42;;;14.20;88.00;;;;;;5017471;28;20060;-77
2023/07/24 01:33:03;;;;;;;6.90;2.10;;;14.20;87.90;;;;;;5010473;28;20369;-77
2023/07/24 01:35:32;;;;;;;10.57;2.65;;;14.20;88.00;;;;;;5010381;28;20065;-77
2023/07/24 01:38:01;;;;;;;12.93;2.35;;;14.20;88.10;;;;;;5011525;28;20026;-77
2023/07/24 01:40:29;;;;;;;6.35;2.15;;;14.30;88.00;;;;;;5008920;28;20076;-77
2023/07/24 01:42:59;;;;;;;6.78;2.22;;;14.30;87.90;;;;;;5013967;28;20032;-76
2023/07/24 01:45:26;;;;;;;9.57;2.50;;;14.30;88.10;;;;;;5007781;28;20039;-77
2023/07/24 01:47:54;;;;;;;11.55;3.25;;;14.30;88.00;;;;;;5005737;28;20092;-77
2023/07/24 01:50:21;;;;;;;9.05;2.03;;;14.30;87.80;;;;;;5004890;28;20084;-76
2023/07/24 01:52:49;;;;;;;5.85;2.10;;;14.30;87.30;;;;;;5017098;28;20533;-76
2023/07/24 01:55:18;;;;;;;9.98;2.15;;;14.30;87.20;;;;;;5011507;28;20694;-77
2023/07/24 01:57:46;;;;;;;5.93;1.90;;;14.20;86.70;;;;;;5016117;28;20384;-77
2023/07/24 02:00:13;;;;;;;7.93;2.08;;;14.30;86.80;;;;;;5004680;28;20423;-76
2023/07/24 02:02:41;;;;;;;7.03;2.10;;;14.30;86.80;;;;;;5006259;28;20029;-77
2023/07/24 02:05:09;;;;;;;10.77;2.25;;;14.30;86.20;;;;;;5005374;28;20469;-75
2023/07/24 02:07:36;;;;;;;9.43;1.90;;;14.30;85.80;;;;;;5006452;28;20029;-75
2023/07/24 02:10:04;;;;;;;11.38;2.28;;;14.30;85.10;;;;;;5013737;28;20046;-75
2023/07/24 02:12:31;;;;;;;13.73;2.22;;;14.40;85.10;;;;;;4998428;28;20033;-77
2023/07/24 02:14:59;;;;;;;5.63;1.80;;;14.40;85.00;;;;;;5017103;28;20022;-77
2023/07/24 02:17:26;;;;;;;6.78;1.83;;;14.40;84.80;;;;;;5007151;28;20944;-77
2023/07/24 02:19:54;;;;;;;5.13;1.85;;;14.40;84.80;;;;;;5012075;28;21242;-77
2023/07/24 02:22:21;;;;;;;6.07;1.75;;;14.50;84.90;;;;;;5022734;28;20022;-75
2023/07/24 02:24:49;;;;;;;7.57;1.80;;;14.40;84.60;;;;;;5008607;28;20026;-75
2023/07/24 02:27:34;;;;;;;11.80;2.60;;;14.40;84.60;;;;;;5005561;28;20064;-76
2023/07/24 02:30:02;;;;;;;9.55;1.65;;;14.40;84.70;;;;;;5008148;28;20369;-76
2023/07/24 02:32:30;;;;;;;7.32;1.60;;;14.50;84.80;;;;;;5013746;28;20554;-76
2023/07/24 02:34:57;;;;;;;9.55;1.75;;;14.50;84.40;;;;;;5014146;28;20027;-75
2023/07/24 02:37:25;;;;;;;6.18;1.60;;;14.60;84.20;;;;;;5008436;28;20030;-77
2023/07/24 02:39:55;;;;;;;9.70;1.90;;;14.60;84.30;;;;;;5016583;28;20514;-75
2023/07/24 02:42:22;;;;;;;9.90;1.60;;;14.70;83.80;;;;;;5013383;28;20110;-75
2023/07/24 02:44:50;;;;;;;8.73;1.50;;;14.70;83.40;;;;;;5032098;28;20379;-77
2023/07/24 02:47:17;;;;;;;7.53;1.65;;;14.80;83.40;;;;;;5012945;28;20468;-77
2023/07/24 02:49:44;;;;;;;9.27;2.00;;;14.80;82.80;;;;;;5009623;28;20087;-76
2023/07/24 02:52:12;;;;;;;10.23;1.80;;;14.90;82.90;;;;;;5011422;28;20034;-76
2023/07/24 02:54:39;;;;;;;5.97;1.40;;;14.90;82.20;;;;;;5005006;28;20029;-76
2023/07/24 02:57:07;;;;;;;12.07;1.90;;;15.00;82.50;;;;;;5017705;28;20034;-75
2023/07/24 02:59:35;;;;;;;8.65;1.65;;;15.10;82.00;;;;;;5011163;28;20014;-76
2023/07/24 03:02:02;;;;;;;8.45;2.00;;;15.20;82.20;;;;;;5018258;28;20144;-76
2023/07/24 03:04:30;;;;;;;12.60;1.83;;;15.20;81.60;;;;;;5006803;28;20084;-76
2023/07/24 03:06:58;;;;;;;6.55;1.88;;;15.30;81.60;;;;;;5003774;28;20034;-76
2023/07/24 03:09:25;;;;;;;5.18;1.70;;;15.40;81.60;;;;;;5005059;28;20034;-78
2023/07/24 03:11:52;;;;;;;7.10;1.55;;;15.50;81.40;;;;;;5012789;28;20077;-76
2023/07/24 03:14:20;;;;;;;10.18;1.67;;;15.40;80.20;;;;;;5010367;28;20469;-78
2023/07/24 03:16:47;;;;;;;6.47;1.70;;;15.50;79.90;;;;;;5018458;28;20042;-76
2023/07/24 03:19:17;;;;;;;6.97;1.88;;;15.40;79.90;;;;;;5011805;28;20489;-76
2023/07/24 03:21:44;;;;;;;8.15;1.73;;;15.40;79.70;;;;;;5014892;28;20210;-76
2023/07/24 03:24:12;;;;;;;8.20;1.80;;;15.30;79.40;;;;;;5011392;28;20029;-76
2023/07/24 03:26:39;;;;;;;11.82;1.63;;;15.30;79.90;;;;;;5010477;28;20038;-76
2023/07/24 03:29:07;;;;;;;3.45;1.50;;;15.30;80.10;;;;;;5012791;28;20046;-76
2023/07/24 03:31:34;;;;;;;8.57;2.08;;;15.30;79.90;;;;;;5010995;28;20152;-77
2023/07/24 03:34:01;;;;;;;8.63;1.95;;;15.30;80.20;;;;;;5007896;28;20034;-76
2023/07/24 03:36:29;;;;;;;7.35;1.92;;;15.30;80.20;;;;;;5010816;28;20030;-75
2023/07/24 03:38:56;;;;;;;8.25;4.15;;;15.30;80.50;;;;;;5013250;28;20354;-77
2023/07/24 03:41:23;;;;;;;8.50;2.20;;;15.30;80.00;;;;;;5012285;28;20453;-76
2023/07/24 03:43:51;;;;;;;9.27;1.88;;;15.30;79.70;;;;;;5014520;28;20073;-76
2023/07/24 03:46:18;;;;;;;5.75;1.75;;;15.30;80.10;;;;;;5013968;28;20037;-76
2023/07/24 03:48:46;;;;;;;9.80;2.17;;;15.30;79.90;;;;;;5013261;28;20375;-77
2023/07/24 03:51:13;;;;;;;7.18;1.77;;;15.30;79.80;;;;;;5024961;28;20081;-76
2023/07/24 03:53:41;;;;;;;4.70;1.33;;;15.30;80.20;;;;;;5012762;28;20477;-76
2023/07/24 03:56:08;;;;;;;7.63;1.63;;;15.30;80.20;;;;;;5013184;28;20036;-79
2023/07/24 03:58:35;;;;;;;8.75;2.03;;;15.30;80.10;;;;;;5015137;28;20030;-76
2023/07/24 04:01:03;;;;;;;6.10;2.05;;;15.30;79.70;;;;;;5012673;28;20022;-77
2023/07/24 04:03:30;;;;;;;8.55;1.63;;;15.40;79.60;;;;;;5013251;28;20408;-77
2023/07/24 04:05:58;;;;;;;5.40;1.83;;;15.40;79.20;;;;;;5014065;28;20033;-76
2023/07/24 04:08:25;;;;;;;7.20;2.40;;;15.50;79.80;;;;;;5013142;28;20030;-77
2023/07/24 04:10:52;;;;;;;10.35;2.08;;;15.60;79.90;;;;;;5013926;28;20447;-77
2023/07/24 04:13:20;;;;;;;6.80;1.90;;;15.70;79.80;;;;;;5013952;28;20561;-77
2023/07/24 04:15:47;;;;;;;9.75;2.10;;;15.80;79.80;;;;;;5012826;28;20112;-78
2023/07/24 04:18:14;;;;;;;7.65;1.85;;;15.90;79.10;;;;;;5014148;28;20223;-77
2023/07/24 04:20:42;;;;;;;6.63;2.13;;;16.00;78.90;;;;;;5013878;28;20022;-77
2023/07/24 04:23:09;;;;;;;12.25;2.22;;;16.00;78.50;;;;;;5013057;28;20353;-77
2023/07/24 04:25:37;;;;;;;7.00;1.65;;;16.10;77.90;;;;;;5013950;28;20030;-77
2023/07/24 04:28:05;;;;;;;7.22;1.80;;;16.10;77.50;;;;;;5013160;28;20034;-80
2023/07/24 04:30:33;;;;;;;7.18;1.75;;;16.20;78.00;;;;;;5010151;28;20034;-77
2023/07/24 04:33:01;;;;;;;5.60;1.70;;;16.20;77.80;;;;;;5010089;28;20092;-78
2023/07/24 04:35:28;;;;;;;5.40;1.60;;;16.20;77.00;;;;;;5019222;28;20058;-80
2023/07/24 04:37:57;;;;;;;5.93;1.73;;;16.20;76.40;;;;;;5015540;28;20076;-77
2023/07/24 04:40:25;;;;;;;6.97;1.92;;;16.20;75.70;;;;;;5013531;28;20018;-77
2023/07/24 04:42:52;;;;;;;5.63;1.90;;;16.20;75.50;;;;;;5013252;28;20489;-77
2023/07/24 04:45:20;;;;;;;10.25;1.95;;;16.20;75.90;;;;;;5013297;28;20029;-77
2023/07/24 04:47:47;;;;;;;9.27;2.20;;;16.20;76.20;;;;;;5013433;28;20029;-77
2023/07/24 04:50:15;;;;;;;4.55;1.77;;;16.20;76.20;;;;;;5010637;28;20038;-76
2023/07/24 04:52:42;;;;;;;7.50;2.00;;;16.20;76.40;;;;;;5011667;28;20513;-77
2023/07/24 04:55:10;;;;;;;8.00;2.20;;;16.10;76.00;;;;;;5012958;28;20058;-78
2023/07/24 04:57:37;;;;;;;7.55;1.88;;;16.10;75.90;;;;;;5028082;28;20380;-78
2023/07/24 05:00:05;;;;;;;10.57;2.22;;;16.00;76.20;;;;;;5013280;28;20021;-78
2023/07/24 05:02:32;;;;;;;7.88;1.70;;;16.00;76.10;;;;;;5011890;28;20030;-76
2023/07/24 05:05:00;;;;;;;5.78;1.70;;;16.00;77.00;;;;;;5022168;28;20432;-76
2023/07/24 05:07:27;;;;;;;4.22;1.70;;;16.00;76.50;;;;;;5025393;28;20361;-76
2023/07/24 05:09:54;;;;;;;5.75;1.80;;;16.00;76.70;;;;;;5011270;28;20038;-76
2023/07/24 05:12:22;;;;;;;19.02;2.33;;;16.00;76.90;;;;;;5012462;28;20038;-76
2023/07/24 05:14:53;;;;;;;8.95;1.70;;;15.90;76.70;;;;;;5017058;28;20045;-76
2023/07/24 05:17:20;;;;;;;5.50;2.15;;;15.90;76.90;;;;;;5021062;28;20017;-77
2023/07/24 05:19:48;;;;;;;6.93;1.63;;;15.90;76.90;;;;;;5015264;28;20472;-77
2023/07/24 05:22:15;;;;;;;5.93;1.52;;;15.90;77.10;;;;;;5014053;28;20109;-77
2023/07/24 05:24:43;;;;;;;6.55;1.85;;;15.90;77.20;;;;;;5015183;28;20041;-78
2023/07/24 05:27:12;;;;;;;7.53;2.05;;;15.90;77.30;;;;;;5011945;28;20038;-77
2023/07/24 05:29:39;;;;;;;6.38;1.70;;;15.80;77.00;;;;;;5016250;28;20022;-79
2023/07/24 05:32:07;;;;;;;7.78;1.70;;;15.80;77.30;;;;;;5009595;28;20034;-78
2023/07/24 05:34:34;;;;;;;4.95;1.73;;;15.80;77.20;;;;;;5009027;28;20041;-78
2023/07/24 05:37:01;;;;;;;5.97;1.67;;;15.80;77.30;;;;;;5013865;28;20527;-77
2023/07/24 05:39:30;;;;;;;9.30;2.13;;;15.80;77.10;;;;;;5015284;28;20061;-77
2023/07/24 05:41:58;;;;;;;8.75;2.30;;;15.80;77.00;;;;;;5007963;28;20030;-78
2023/07/24 05:44:25;;;;;;;6.97;1.90;;;15.80;77.00;;;;;;5001073;28;20030;-77
2023/07/24 05:46:52;;;;;;;11.38;2.95;;;15.70;77.00;;;;;;5008657;28;20053;-78
2023/07/24 05:49:20;;;;;;;5.00;1.77;;;15.70;77.00;;;;;;4997511;28;20483;-77
2023/07/24 05:51:47;;;;;;;8.00;1.98;;;15.70;77.20;;;;;;5014186;28;20383;-77
2023/07/24 05:54:14;;;;;;;4.85;1.65;;;15.70;77.40;;;;;;5019949;28;20091;-77
2023/07/24 05:56:42;;;;;;;6.90;1.70;;;15.70;77.10;;;;;;5013842;28;20033;-79
2023/07/24 05:59:09;;;;;;;8.02;1.95;;;15.70;77.80;;;;;;5013855;28;20392;-77
2023/07/24 06:01:37;;;;;;;10.90;2.10;;;15.70;77.60;;;;;;5020038;28;20030;-77
2023/07/24 06:04:07;;;;;;;5.43;1.58;;;15.60;77.50;;;;;;5011782;28;20464;-77
2023/07/24 06:06:36;;;;;;;8.70;1.95;;;15.60;77.30;;;;;;5013445;28;20479;-77
2023/07/24 06:09:04;;;;;;;5.88;2.45;;;15.60;77.10;;;;;;4996822;28;20031;-77
2023/07/24 06:11:31;;;;;;;5.43;1.83;;;15.60;77.00;;;;;;4996544;28;20034;-77
2023/07/24 06:13:59;;;;;;;7.00;1.85;;;15.50;76.80;;;;;;4996729;28;20484;-77
2023/07/24 06:16:26;;;;;;;6.28;2.08;;;15.50;77.20;;;;;;4996788;28;20126;-77
2023/07/24 06:18:54;;;;;;;6.07;1.70;;;15.50;77.30;;;;;;4996725;28;20034;-78
2023/07/24 06:21:21;;;;;;;9.07;2.38;;;15.50;77.80;;;;;;5012425;28;20041;-77
2023/07/24 06:23:48;;;;;;;6.22;1.70;;;15.50;77.70;;;;;;5015566;28;20431;-77
2023/07/24 06:26:16;;;;;;;5.82;1.75;;;15.50;77.70;;;;;;5016105;28;20491;-77
2023/07/24 06:28:44;;;;;;;6.20;1.90;;;15.50;77.50;;;;;;5016092;28;20551;-77
2023/07/24 06:31:11;;;;;;;6.10;1.70;;;15.40;77.30;;;;;;5015750;28;20117;-77
2023/07/24 06:33:39;;;;;;;6.35;1.45;;;15.40;77.50;;;;;;5016019;28;20022;-76
2023/07/24 06:36:10;;;;;;;9.52;2.17;;;15.40;77.70;;;;;;5015909;28;20022;-76
2023/07/24 06:38:37;;;;;;;10.23;2.20;;;15.30;78.00;;;;;;5015908;28;20488;-77
2023/07/24 06:41:05;;;;;;;8.15;1.92;;;15.30;78.00;;;;;;5029632;28;20058;-77
2023/07/24 06:43:32;;;;;;;6.45;1.77;;;15.30;78.30;;;;;;5015806;28;20030;-78
2023/07/24 06:46:00;;;;;;;5.50;1.77;;;15.30;78.40;;;;;;5014835;28;20026;-78
2023/07/24 06:48:27;;;;;;;8.35;2.55;;;15.30;78.50;;;;;;5014831;28;20492;-77
2023/07/24 06:50:55;;;;;;;5.68;2.00;;;15.30;78.50;;;;;;5014622;28;20022;-76
2023/07/24 06:53:22;;;;;;;5.63;1.90;;;15.20;78.70;;;;;;5014492;28;20143;-77
2023/07/24 06:55:50;;;;;;;8.27;2.65;;;15.20;78.80;;;;;;5014846;28;20057;-78
2023/07/24 06:58:17;;;;;;;9.50;3.40;;;15.20;79.00;;;;;;5015565;28;20485;-78
2023/07/24 07:00:45;;;;;;;6.00;2.47;;;15.20;79.20;;;;;;5014311;28;20022;-77
2023/07/24 07:03:12;;;;;;;8.80;3.08;;;15.20;79.60;;;;;;5014405;28;20046;-77
2023/07/24 07:05:39;;;;;;;10.43;2.58;;;15.20;79.60;;;;;;5014371;28;20105;-77
2023/07/24 07:08:07;;;;;;;11.32;3.38;;;15.10;79.70;;;;;;5013810;28;20179;-78
2023/07/24 07:10:34;;;;;;;11.27;3.42;;;15.10;79.70;;;;;;5013445;28;20496;-77
2023/07/24 07:13:02;;;;;;;14.30;3.22;;;15.00;79.80;;;;;;5010857;28;20069;-77
2023/07/24 07:15:29;;;;;;;13.80;4.78;;;15.00;79.90;;;;;;5010907;28;20060;-77
2023/07/24 07:17:57;;;;;;;16.20;4.93;;;15.00;80.20;;;;;;5014649;28;20440;-77
2023/07/24 07:20:24;;;;;;;13.45;5.47;;;14.90;80.00;;;;;;5014680;28;20083;-77
2023/07/24 07:22:51;;;;;;;17.52;7.40;;;14.80;80.30;;;;;;5015074;28;20400;-78
2023/07/24 07:25:19;;;;;;;19.33;7.32;;;14.80;80.20;;;;;;5013735;28;20034;-77
2023/07/24 07:27:46;;;;;;;16.38;5.22;;;14.70;80.40;;;;;;5012205;28;20095;-77
2023/07/24 07:30:14;;;;;;;9.63;3.97;;;14.70;80.50;;;;;;5012707;28;20030;-78
2023/07/24 07:32:42;;;;;;;8.27;3.30;;;14.70;80.40;;;;;;5014825;28;20038;-77
2023/07/24 07:35:09;;;;;;;11.85;3.90;;;14.50;80.60;;;;;;5014383;28;20022;-77
2023/07/24 07:37:36;;;;;;;9.27;4.10;;;14.50;80.90;;;;;;5014730;28;20115;-77
2023/07/24 07:40:04;;;;;;;10.00;3.35;;;14.50;81.00;;;;;;5012294;28;20018;-78
2023/07/24 07:42:32;;;;;;;10.32;3.65;;;14.40;81.10;;;;;;5014194;28;20029;-77
2023/07/24 07:44:59;;;;;;;11.23;5.18;;;14.30;81.20;;;;;;5013578;28;20064;-77
2023/07/24 07:47:26;;;;;;;11.25;4.30;;;14.20;81.20;;;;;;5014427;28;20495;-77
2023/07/24 07:49:54;;;;;;;12.05;3.95;;;14.20;81.30;;;;;;5014430;28;20106;-78
2023/07/24 07:52:22;;;;;;;10.63;3.75;;;14.20;81.40;;;;;;5014527;28;20113;-76
2023/07/24 07:54:49;;;;;;;12.57;4.03;;;14.20;81.70;;;;;;5013745;28;20462;-78
2023/07/24 07:57:17;;;;;;;10.90;4.38;;;14.20;81.90;;;;;;5013468;28;20087;-78
2023/07/24 07:59:44;;;;;;;10.82;3.75;;;14.10;81.80;;;;;;5014273;28;20028;-77
2023/07/24 08:02:12;;;;;;;9.02;4.25;;;14.00;81.80;;;;;;5014141;28;20037;-77
2023/07/24 08:04:39;;;;;;;11.27;4.15;;;14.00;82.00;;;;;;5012534;28;20093;-75
2023/07/24 08:07:07;;;;;;;8.65;3.92;;;13.90;82.00;;;;;;5013368;28;20032;-77
2023/07/24 08:09:35;;;;;;;10.32;4.00;;;13.90;82.30;;;;;;5031940;28;20073;-78
2023/07/24 08:12:03;;;;;;;10.90;3.55;;;13.90;82.30;;;;;;5033778;28;20033;-79
2023/07/24 08:14:31;;;;;;;14.48;4.32;;;13.90;82.30;;;;;;5014075;28;20644;-78
2023/07/24 08:16:58;;;;;;;11.68;3.25;;;13.80;82.40;;;;;;5012985;28;20057;-77
2023/07/24 08:19:29;;;;;;;12.38;3.50;;;13.80;82.30;;;;;;5018068;28;20032;-78
2023/07/24 08:21:57;;;;;;;9.35;3.38;;;13.70;82.50;;;;;;5012961;28;20052;-78
2023/07/24 08:24:24;;;;;;;8.52;2.88;;;13.70;82.60;;;;;;5019502;28;20030;-78
2023/07/24 08:26:51;;;;;;;13.70;3.47;;;13.70;82.50;;;;;;5014514;28;20026;-77
2023/07/24 08:29:19;;;;;;;32.70;9.55;;;13.70;82.90;;;;;;5014565;28;20053;-78
2023/07/24 08:31:47;;;;;;;16.67;5.85;;;13.70;82.80;;;;;;5011995;28;20026;-78
2023/07/24 08:34:14;;;;;;;14.20;5.03;;;13.70;82.80;;;;;;5009039;28;20025;-79
2023/07/24 08:36:42;;;;;;;9.48;3.60;;;13.60;82.80;;;;;;5018761;28;20026;-78
2023/07/24 08:39:09;;;;;;;10.35;4.85;;;13.60;82.80;;;;;;5016629;28;20022;-79
2023/07/24 08:41:38;;;;;;;17.15;5.38;;;13.50;82.90;;;;;;5011394;28;20392;-77
2023/07/24 08:44:07;;;;;;;10.93;4.90;;;13.50;83.10;;;;;;5013559;28;20022;-78
2023/07/24 08:46:41;;;;;;;15.75;4.72;;;13.50;83.10;;;;;;5013567;28;20049;-78
2023/07/24 08:49:13;;;;;;;13.50;4.40;;;13.50;83.20;;;;;;5013172;28;20032;-78
2023/07/24 08:51:42;;;;;;;10.57;4.25;;;13.40;83.30;;;;;;5013422;28;20038;-78
2023/07/24 08:54:10;;;;;;;11.90;4.43;;;13.50;83.70;;;;;;5012668;28;20462;-77
2023/07/24 08:56:41;;;;;;;20.17;5.30;;;13.50;83.50;;;;;;5013758;28;20373;-79
2023/07/24 08:59:09;;;;;;;13.55;5.13;;;13.40;83.40;;;;;;5013269;28;20025;-77
2023/07/24 09:01:36;;;;;;;14.13;4.53;;;13.40;83.50;;;;;;5012408;28;20034;-78
2023/07/24 09:04:03;;;;;;;13.30;4.53;;;13.30;83.60;;;;;;5013309;28;20018;-78
2023/07/24 09:06:31;;;;;;;13.77;3.75;;;13.30;83.60;;;;;;5013439;28;20029;-77
2023/07/24 09:08:58;;;;;;;10.63;4.38;;;13.30;84.00;;;;;;5012234;28;20026;-78
2023/07/24 09:11:25;;;;;;;15.35;5.30;;;13.30;83.80;;;;;;5012320;28;20030;-78
2023/07/24 09:13:53;;;;;;;12.43;4.45;;;13.30;83.50;;;;;;5013146;28;20030;-79
2023/07/24 09:16:25;;;;;;;13.80;5.38;;;13.30;83.50;;;;;;5013044;28;20014;-79
2023/07/24 09:18:53;;;;;;;12.55;5.88;;;13.30;83.50;;;;;;5012961;28;20393;-79
2023/07/24 09:21:30;;;;;;;12.48;5.45;;;13.20;83.50;;;;;;5012726;28;20384;-77
2023/07/24 09:23:59;;;;;;;13.40;4.65;;;13.20;83.80;;;;;;5013019;28;20014;-79
2023/07/24 09:26:26;;;;;;;15.35;5.15;;;13.20;83.70;;;;;;5026505;28;20037;-80
2023/07/24 09:28:55;;;;;;;12.68;4.65;;;13.20;83.80;;;;;;5012424;28;20054;-78
2023/07/24 09:31:23;;;;;;;12.90;4.97;;;13.20;84.10;;;;;;5012493;28;20116;-79
2023/07/24 09:33:50;;;;;;;13.10;5.78;;;13.20;84.00;;;;;;5011799;28;20569;-80
2023/07/24 09:36:17;;;;;;;16.02;4.95;;;13.10;84.10;;;;;;5012960;28;20466;-79
2023/07/24 09:38:45;;;;;;;15.00;5.18;;;13.20;84.40;;;;;;5012084;28;20026;-78
2023/07/24 09:41:14;;;;;;;14.88;5.47;;;13.20;84.10;;;;;;5016483;28;20123;-79
2023/07/24 09:43:42;;;;;;;14.20;5.30;;;13.10;84.10;;;;;;5017060;28;20149;-79
2023/07/24 09:46:13;;;;;;;10.27;4.43;;;13.10;84.10;;;;;;5017065;28;20124;-78
2023/07/24 09:48:43;;;;;;;12.00;4.68;;;13.10;84.10;;;;;;5029741;28;20492;-78
2023/07/24 09:51:13;;;;;;;10.75;3.92;;;13.10;84.30;;;;;;5015712;28;20529;-77
2023/07/24 09:53:51;;;;;;;13.23;4.53;;;13.10;84.50;;;;;;5016766;28;20033;-79
2023/07/24 09:56:19;;;;;;;10.25;4.45;;;13.10;85.00;;;;;;5031961;28;20076;-79
2023/07/24 09:58:49;;;;;;;13.68;5.05;;;13.20;84.90;;;;;;5016644;28;20029;-79
2023/07/24 10:01:17;;;;;;;9.80;4.50;;;13.20;84.30;;;;;;5016555;28;20026;-80
2023/07/24 10:03:51;;;;;;;12.25;5.07;;;13.20;84.30;;;;;;5016530;28;20064;-78
2023/07/24 10:06:20;;;;;;;11.35;4.13;;;13.20;83.80;;;;;;5014434;28;20399;-78
2023/07/24 10:08:48;;;;;;;13.55;4.45;;;13.20;83.60;;;;;;5014777;28;20096;-79
2023/07/24 10:11:16;;;;;;;12.45;4.45;;;13.10;83.60;;;;;;5016058;28;20125;-79
2023/07/24 10:13:43;;;;;;;12.27;4.75;;;13.00;83.80;;;;;;5016555;28;20034;-77
2023/07/24 10:16:11;;;;;;;13.70;4.78;;;12.90;84.00;;;;;;5016351;28;20117;-79
2023/07/24 10:18:48;;;;;;;12.20;5.07;;;13.00;84.70;;;;;;5016237;28;20033;-79
2023/07/24 10:21:16;;;;;;;11.98;4.93;;;13.00;84.50;;;;;;5016113;28;20037;-78
2023/07/24 10:23:48;;;;;;;13.00;5.10;;;13.00;84.00;;;;;;5013447;28;20032;-77
2023/07/24 10:26:16;;;;;;;14.75;5.57;;;13.00;84.70;;;;;;5015219;28;20473;-78
2023/07/24 10:28:46;;;;;;;11.15;5.13;;;13.10;84.70;;;;;;5016396;28;20436;-78
2023/07/24 10:31:21;;;;;;;10.93;4.75;;;13.10;83.90;;;;;;5016121;28;20022;-78
2023/07/24 10:33:49;;;;;;;12.70;5.25;;;13.00;83.80;;;;;;5017515;28;20053;-79
2023/07/24 10:36:22;;;;;;;11.60;5.07;;;12.90;83.80;;;;;;5016469;28;20465;-78
2023/07/24 10:38:55;;;;;;;13.40;5.95;;;12.90;84.60;;;;;;5017862;28;20423;-77
2023/07/24 10:41:22;;;;;;;13.57;5.75;;;12.90;84.40;;;;;;5016457;28;20021;-80
2023/07/24 10:43:59;;;;;;;17.08;6.03;;;12.90;84.20;;;;;;5015762;28;20080;-80
2023/07/24 10:46:37;;;;;;;13.23;6.20;;;12.90;84.60;;;;;;5015811;28;20417;-79
2023/07/24 10:49:05;;;;;;;18.25;7.18;;;12.90;84.70;;;;;;5015639;28;20022;-79
2023/07/24 10:51:34;;;;;;;14.05;6.20;;;12.90;84.30;;;;;;5014203;28;20034;-77
2023/07/24 10:54:05;;;;;;;17.25;6.63;;;12.80;84.50;;;;;;5015703;28;20434;-79
2023/07/24 10:56:33;;;;;;;15.00;6.22;;;12.90;84.90;;;;;;5014766;28;20030;-79
2023/07/24 10:59:06;;;;;;;19.92;7.75;;;12.80;84.40;;;;;;5015464;28;20029;-78
2023/07/24 11:01:34;;;;;;;18.55;7.85;;;12.80;84.60;;;;;;5013835;28;20032;-79
2023/07/24 11:04:01;;;;;;;14.43;7.15;;;12.70;84.50;;;;;;5015304;28;20022;-77
2023/07/24 11:06:29;;;;;;;16.40;7.43;;;12.70;84.80;;;;;;5015353;28;20109;-79
2023/07/24 11:08:59;;;;;;;16.83;8.27;;;12.70;85.00;;;;;;5015070;28;20105;-78
2023/07/24 11:11:33;;;;;;;21.08;7.93;;;12.70;84.90;;;;;;5015107;28;20422;-79
2023/07/24 11:14:02;;;;;;;15.70;7.50;;;12.70;85.10;;;;;;5015282;28;20022;-77
2023/07/24 11:16:32;;;;;;;17.10;8.13;;;12.70;85.40;;;;;;5014435;28;20377;-78
2023/07/24 11:19:00;;;;;;;16.33;8.20;;;12.70;85.20;;;;;;5015083;28;20103;-79
2023/07/24 11:21:28;;;;;;;19.60;8.63;;;12.70;85.10;;;;;;5014949;28;20018;-78
2023/07/24 11:23:57;;;;;;;21.02;8.82;;;12.70;85.30;;;;;;5013677;28;20029;-78
2023/07/24 11:26:27;;;;;;;18.42;8.85;;;12.70;84.70;;;;;;5030124;28;20029;-78
2023/07/24 11:28:54;;;;;;;21.35;9.20;;;12.70;85.10;;;;;;5011659;28;20036;-78
2023/07/24 11:31:22;;;;;;;17.15;8.57;;;12.70;85.10;;;;;;5013848;28;20084;-80
2023/07/24 11:33:54;;;;;;;16.95;8.02;;;12.60;85.00;;;;;;5014870;28;20022;-79
2023/07/24 11:36:22;;;;;;;17.80;8.98;;;12.60;85.30;;;;;;5013845;28;20026;-78
2023/07/24 11:38:50;;;;;;;19.33;9.75;;;12.60;85.20;;;;;;5014740;28;20034;-77
2023/07/24 11:41:21;;;;;;;16.95;8.77;;;12.60;85.10;;;;;;5014612;28;20049;-79
2023/07/24 11:43:50;;;;;;;18.50;9.05;;;12.50;85.40;;;;;;5014052;28;20034;-78
2023/07/24 11:46:28;;;;;;;17.65;8.13;;;12.50;85.40;;;;;;5011804;28;20072;-78
2023/07/24 11:48:59;;;;;;;17.95;8.80;;;12.50;85.60;;;;;;5012969;28;20137;-79
2023/07/24 11:51:27;;;;;;;18.02;8.60;;;12.50;85.50;;;;;;5014174;28;20049;-77
2023/07/24 11:54:08;;;;;;;20.90;9.30;;;12.50;85.90;;;;;;5014471;28;20088;-80
2023/07/24 11:56:35;;;;;;;17.25;8.15;;;12.50;85.60;;;;;;5014497;28;20022;-79
2023/07/24 11:59:17;;;;;;;14.15;7.65;;;12.50;85.70;;;;;;5014366;28;20117;-80
2023/07/24 12:01:50;;;;;;;15.38;7.30;;;12.50;85.80;;;;;;5012825;28;20040;-78
2023/07/24 12:04:18;;;;;;;13.95;7.05;;;12.60;85.70;;;;;;5028847;28;20034;-78
2023/07/24 12:06:45;;;;;;;12.60;6.93;;;12.70;85.60;;;;;;5014343;28;20041;-78
2023/07/24 12:09:13;;;;;;;12.73;7.07;;;12.70;85.50;;;;;;5014006;28;20026;-79
2023/07/24 12:11:44;;;;;;;13.35;6.90;;;12.70;85.50;;;;;;5013328;28;20038;-78
2023/07/24 12:14:11;;;;;;;12.90;6.10;;;12.70;84.80;;;;;;5014005;28;20029;-79
2023/07/24 12:16:39;;;;;;;19.35;7.72;;;12.70;84.90;;;;;;5014250;28;20025;-79
2023/07/24 12:19:07;;;;;;;13.63;7.20;;;12.70;84.80;;;;;;5013871;28;20044;-78
2023/07/24 12:21:34;;;;;;;11.15;6.40;;;12.70;85.20;;;;;;5014193;28;20072;-79
2023/07/24 12:24:02;;;;;;;15.00;6.75;;;12.60;85.10;;;;;;5013298;28;20026;-77
2023/07/24 12:26:29;;;;;;;16.10;7.45;;;12.60;85.10;;;;;;5014075;28;20029;-77
2023/07/24 12:28:59;;;;;;;10.38;5.60;;;12.60;85.60;;;;;;5011535;28;20046;-76
2023/07/24 12:31:26;;;;;;;12.82;7.05;;;12.70;85.10;;;;;;5012880;28;20444;-76
2023/07/24 12:33:54;;;;;;;13.98;6.05;;;12.50;84.80;;;;;;5011694;28;20037;-77
2023/07/24 12:36:21;;;;;;;13.80;6.47;;;12.50;85.00;;;;;;5018677;28;20337;-77
2023/07/24 12:38:49;;;;;;;13.38;6.15;;;12.50;85.00;;;;;;5012374;28;20029;-77
2023/07/24 12:41:16;;;;;;;10.85;5.68;;;12.40;85.10;;;;;;5011858;28;20041;-78
2023/07/24 12:43:44;;;;;;;11.63;6.57;;;12.50;85.10;;;;;;5013640;28;20025;-79
2023/07/24 12:46:12;;;;;;;11.00;6.07;;;12.40;85.00;;;;;;5011697;28;20499;-78